createdAt,value
2019-04-06T00:00:44.601Z,1006.59
2019-04-06T00:01:48.883Z,1006.59
2019-04-06T00:02:53.147Z,1006.57
2019-04-06T00:03:57.454Z,1006.55
2019-04-06T00:05:01.750Z,1006.57
2019-04-06T00:06:06.049Z,1006.60
2019-04-06T00:07:10.361Z,1006.61
2019-04-06T00:08:14.810Z,1006.61
2019-04-06T00:09:19.061Z,1006.60
2019-04-06T00:10:23.395Z,1006.61
2019-04-06T00:11:27.737Z,1006.59
2019-04-06T00:12:32.059Z,1006.62
2019-04-06T00:13:36.443Z,1006.62
2019-04-06T00:14:40.709Z,1006.63
2019-04-06T00:15:44.989Z,1006.64
2019-04-06T00:16:49.411Z,1006.65
2019-04-06T00:17:53.666Z,1006.69
2019-04-06T00:18:57.961Z,1006.72
2019-04-06T00:20:02.246Z,1006.70
2019-04-06T00:21:06.628Z,1006.71
2019-04-06T00:22:10.919Z,1006.75
2019-04-06T00:23:15.163Z,1006.75
2019-04-06T00:24:19.399Z,1006.77
2019-04-06T00:25:23.681Z,1006.80
2019-04-06T00:26:27.968Z,1006.78
2019-04-06T00:27:32.249Z,1006.81
2019-04-06T00:28:36.551Z,1006.81
2019-04-06T00:29:40.957Z,1006.82
2019-04-06T00:30:45.192Z,1006.80
2019-04-06T00:31:49.516Z,1006.81
2019-04-06T00:32:53.691Z,1006.84
2019-04-06T00:33:58.007Z,1006.84
2019-04-06T00:35:02.445Z,1006.84
2019-04-06T00:36:06.594Z,1006.83
2019-04-06T00:37:10.852Z,1006.82
2019-04-06T00:38:15.101Z,1006.82
2019-04-06T00:39:19.394Z,1006.82
2019-04-06T00:40:23.478Z,1006.87
2019-04-06T00:41:27.854Z,1006.88
2019-04-06T00:42:32.094Z,1006.89
2019-04-06T00:43:36.470Z,1006.89
2019-04-06T00:44:40.787Z,1006.92
2019-04-06T00:45:44.991Z,1006.92
2019-04-06T00:46:49.327Z,1006.94
2019-04-06T00:47:53.514Z,1006.97
2019-04-06T00:48:57.858Z,1006.97
2019-04-06T00:50:02.069Z,1006.96
2019-04-06T00:51:06.288Z,1006.95
2019-04-06T00:52:10.599Z,1006.95
2019-04-06T00:53:14.941Z,1006.98
2019-04-06T00:54:19.242Z,1006.97
2019-04-06T00:55:23.320Z,1006.96
2019-04-06T00:56:27.683Z,1006.97
2019-04-06T00:57:31.990Z,1006.95
2019-04-06T00:58:36.228Z,1006.93
2019-04-06T00:59:40.533Z,1006.94
2019-04-06T01:00:44.705Z,1006.96
2019-04-06T01:01:49.128Z,1006.93
2019-04-06T01:02:53.369Z,1006.88
2019-04-06T01:03:57.513Z,1006.87
2019-04-06T01:05:01.775Z,1006.89
2019-04-06T01:06:06.096Z,1006.91
2019-04-06T01:07:10.310Z,1006.92
2019-04-06T01:08:14.661Z,1006.91
2019-04-06T01:09:18.912Z,1006.94
2019-04-06T01:10:23.129Z,1006.95
2019-04-06T01:11:27.395Z,1006.94
2019-04-06T01:12:31.772Z,1006.94
2019-04-06T01:13:35.989Z,1006.93
2019-04-06T01:14:40.244Z,1006.92
2019-04-06T01:15:44.598Z,1006.92
2019-04-06T01:16:48.746Z,1006.96
2019-04-06T01:17:53.105Z,1007.01
2019-04-06T01:18:57.366Z,1007.01
2019-04-06T01:20:01.443Z,1007.03
2019-04-06T01:21:05.820Z,1007.02
2019-04-06T01:22:13.141Z,1007.00
2019-04-06T01:23:16.558Z,1007.01
2019-04-06T01:24:20.867Z,1007.01
2019-04-06T01:25:25.022Z,1007.04
2019-04-06T01:26:29.222Z,1007.03
2019-04-06T01:27:33.777Z,1007.02
2019-04-06T01:28:37.775Z,1007.03
2019-04-06T01:29:42.103Z,1007.03
2019-04-06T01:30:46.478Z,1007.03
2019-04-06T01:31:50.662Z,1007.04
2019-04-06T01:32:54.899Z,1007.03
2019-04-06T01:33:59.438Z,1007.03
2019-04-06T01:35:03.578Z,1007.07
2019-04-06T01:36:07.890Z,1007.08
2019-04-06T01:37:11.990Z,1007.09
2019-04-06T01:38:16.161Z,1007.09
2019-04-06T01:39:20.404Z,1007.06
2019-04-06T01:40:24.627Z,1007.05
2019-04-06T01:41:28.812Z,1007.06
2019-04-06T01:42:33.046Z,1007.09
2019-04-06T01:43:37.365Z,1007.09
2019-04-06T01:44:41.627Z,1007.11
2019-04-06T01:45:45.845Z,1007.12
2019-04-06T01:46:50.040Z,1007.11
2019-04-06T01:47:54.274Z,1007.14
2019-04-06T01:48:58.601Z,1007.15
2019-04-06T01:50:02.870Z,1007.14
2019-04-06T01:51:07.223Z,1007.14
2019-04-06T01:52:11.512Z,1007.14
2019-04-06T01:53:15.657Z,1007.12
2019-04-06T01:54:19.886Z,1007.12
2019-04-06T01:55:24.205Z,1007.14
2019-04-06T01:56:28.367Z,1007.16
2019-04-06T01:57:32.697Z,1007.17
2019-04-06T01:58:36.974Z,1007.19
2019-04-06T01:59:41.192Z,1007.15
2019-04-06T02:00:45.495Z,1007.10
2019-04-06T02:01:49.611Z,1007.11
2019-04-06T02:02:53.918Z,1007.09
2019-04-06T02:03:58.183Z,1007.07
2019-04-06T02:05:02.323Z,1007.09
2019-04-06T02:06:06.567Z,1007.11
2019-04-06T02:07:10.956Z,1007.15
2019-04-06T02:08:15.115Z,1007.17
2019-04-06T02:09:19.317Z,1007.18
2019-04-06T02:10:23.707Z,1007.19
2019-04-06T02:11:27.916Z,1007.17
2019-04-06T02:12:32.156Z,1007.20
2019-04-06T02:13:36.531Z,1007.25
2019-04-06T02:14:40.648Z,1007.29
2019-04-06T02:15:45.010Z,1007.29
2019-04-06T02:16:49.329Z,1007.27
2019-04-06T02:17:53.376Z,1007.20
2019-04-06T02:18:57.609Z,1007.15
2019-04-06T02:20:01.781Z,1007.14
2019-04-06T02:21:06.007Z,1007.15
2019-04-06T02:22:10.350Z,1007.17
2019-04-06T02:23:14.596Z,1007.21
2019-04-06T02:24:18.724Z,1007.21
2019-04-06T02:25:23.019Z,1007.20
2019-04-06T02:26:30.943Z,1007.16
2019-04-06T02:27:31.422Z,1007.15
2019-04-06T02:28:35.789Z,1007.18
2019-04-06T02:29:43.005Z,1007.23
2019-04-06T02:30:46.336Z,1007.26
2019-04-06T02:31:50.657Z,1007.26
2019-04-06T02:32:54.956Z,1007.23
2019-04-06T02:33:59.206Z,1007.21
2019-04-06T02:35:03.503Z,1007.20
2019-04-06T02:36:07.823Z,1007.26
2019-04-06T02:37:12.142Z,1007.29
2019-04-06T02:38:16.208Z,1007.27
2019-04-06T02:39:20.707Z,1007.29
2019-04-06T02:40:24.808Z,1007.30
2019-04-06T02:41:29.049Z,1007.29
2019-04-06T02:42:33.451Z,1007.24
2019-04-06T02:43:37.608Z,1007.17
2019-04-06T02:44:41.842Z,1007.19
2019-04-06T02:45:46.217Z,1007.22
2019-04-06T02:46:50.547Z,1007.28
2019-04-06T02:47:54.922Z,1007.26
2019-04-06T02:48:58.964Z,1007.20
2019-04-06T02:50:03.272Z,1007.16
2019-04-06T02:51:07.539Z,1007.17
2019-04-06T02:52:11.728Z,1007.23
2019-04-06T02:53:16.085Z,1007.24
2019-04-06T02:54:20.269Z,1007.24
2019-04-06T02:55:24.505Z,1007.22
2019-04-06T02:56:44.317Z,1007.18
2019-04-06T02:57:33.295Z,1007.18
2019-04-06T02:58:37.214Z,1007.19
2019-04-06T02:59:41.650Z,1007.15
2019-04-06T03:00:45.857Z,1007.14
2019-04-06T03:01:50.123Z,1007.15
2019-04-06T03:02:54.311Z,1007.12
2019-04-06T03:03:58.569Z,1007.11
2019-04-06T03:05:02.699Z,1007.13
2019-04-06T03:06:07.129Z,1007.12
2019-04-06T03:07:11.367Z,1007.10
2019-04-06T03:08:15.626Z,1007.10
2019-04-06T03:09:19.983Z,1007.08
2019-04-06T03:10:24.200Z,1007.08
2019-04-06T03:11:28.534Z,1007.06
2019-04-06T03:12:32.784Z,1007.05
2019-04-06T03:13:36.935Z,1007.07
2019-04-06T03:14:44.243Z,1007.08
2019-04-06T03:15:45.709Z,1007.05
2019-04-06T03:16:49.647Z,1007.06
2019-04-06T03:17:53.928Z,1007.06
2019-04-06T03:18:58.140Z,1007.07
2019-04-06T03:20:02.502Z,1007.08
2019-04-06T03:21:06.531Z,1007.04
2019-04-06T03:22:11.067Z,1007.03
2019-04-06T03:23:15.171Z,1007.02
2019-04-06T03:24:19.501Z,1007.04
2019-04-06T03:25:23.809Z,1007.01
2019-04-06T03:26:28.039Z,1007.02
2019-04-06T03:27:32.228Z,1007.01
2019-04-06T03:28:36.448Z,1007.01
2019-04-06T03:29:56.235Z,1006.98
2019-04-06T03:30:45.814Z,1006.99
2019-04-06T03:31:49.719Z,1006.97
2019-04-06T03:32:54.043Z,1006.98
2019-04-06T03:33:58.583Z,1006.98
2019-04-06T03:35:02.703Z,1006.97
2019-04-06T03:36:06.742Z,1006.97
2019-04-06T03:37:11.154Z,1006.96
2019-04-06T03:38:15.363Z,1006.96
2019-04-06T03:39:19.732Z,1006.96
2019-04-06T03:40:24.061Z,1006.95
2019-04-06T03:41:28.202Z,1006.94
2019-04-06T03:42:32.462Z,1006.90
2019-04-06T03:43:36.750Z,1006.89
2019-04-06T03:44:40.906Z,1006.89
2019-04-06T03:45:45.212Z,1006.90
2019-04-06T03:46:49.478Z,1006.89
2019-04-06T03:47:53.866Z,1006.88
2019-04-06T03:48:57.979Z,1006.89
2019-04-06T03:50:02.212Z,1006.88
2019-04-06T03:51:06.420Z,1006.90
2019-04-06T03:52:10.700Z,1006.87
2019-04-06T03:53:14.981Z,1006.89
2019-04-06T03:54:19.284Z,1006.88
2019-04-06T03:55:23.546Z,1006.87
2019-04-06T03:56:27.765Z,1006.87
2019-04-06T03:57:32.055Z,1006.86
2019-04-06T03:58:36.319Z,1006.85
2019-04-06T03:59:40.708Z,1006.85
2019-04-06T04:00:44.769Z,1006.87
2019-04-06T04:01:49.068Z,1006.86
2019-04-06T04:02:53.439Z,1006.89
2019-04-06T04:03:57.601Z,1006.87
2019-04-06T04:05:01.854Z,1006.88
2019-04-06T04:06:06.119Z,1006.88
2019-04-06T04:07:10.390Z,1006.90
2019-04-06T04:08:14.703Z,1006.94
2019-04-06T04:09:18.859Z,1006.91
2019-04-06T04:10:23.100Z,1006.94
2019-04-06T04:11:27.422Z,1006.94
2019-04-06T04:12:31.723Z,1006.97
2019-04-06T04:13:35.920Z,1006.97
2019-04-06T04:14:40.326Z,1006.98
2019-04-06T04:15:44.502Z,1006.98
2019-04-06T04:16:48.789Z,1006.97
2019-04-06T04:17:53.085Z,1006.95
2019-04-06T04:18:57.460Z,1006.97
2019-04-06T04:20:02.234Z,1007.00
2019-04-06T04:21:06.235Z,1006.96
2019-04-06T04:22:10.248Z,1006.97
2019-04-06T04:23:14.531Z,1006.97
2019-04-06T04:24:18.827Z,1006.96
2019-04-06T04:25:23.099Z,1006.94
2019-04-06T04:26:27.398Z,1006.89
2019-04-06T04:27:31.747Z,1006.88
2019-04-06T04:28:36.099Z,1006.87
2019-04-06T04:29:40.449Z,1006.88
2019-04-06T04:30:44.728Z,1006.88
2019-04-06T04:31:49.159Z,1006.89
2019-04-06T04:32:53.369Z,1006.89
2019-04-06T04:33:57.526Z,1006.89
2019-04-06T04:35:01.834Z,1006.88
2019-04-06T04:36:06.112Z,1006.87
2019-04-06T04:37:10.210Z,1006.91
2019-04-06T04:38:14.583Z,1006.88
2019-04-06T04:39:19.132Z,1006.93
2019-04-06T04:40:22.970Z,1006.96
2019-04-06T04:41:27.446Z,1006.94
2019-04-06T04:42:31.530Z,1006.97
2019-04-06T04:43:35.798Z,1006.96
2019-04-06T04:44:40.176Z,1006.98
2019-04-06T04:45:44.423Z,1006.98
2019-04-06T04:46:48.736Z,1007.00
2019-04-06T04:47:53.000Z,1007.03
2019-04-06T04:48:57.254Z,1007.02
2019-04-06T04:50:01.686Z,1007.03
2019-04-06T04:51:05.957Z,1007.04
2019-04-06T04:52:10.302Z,1007.04
2019-04-06T04:53:14.645Z,1007.04
2019-04-06T04:54:18.907Z,1007.05
2019-04-06T04:55:23.468Z,1007.07
2019-04-06T04:56:27.674Z,1007.06
2019-04-06T04:57:40.133Z,1007.10
2019-04-06T04:58:35.946Z,1007.09
2019-04-06T04:59:40.239Z,1007.10
2019-04-06T05:00:44.501Z,1007.09
2019-04-06T05:01:48.828Z,1007.09
2019-04-06T05:02:53.007Z,1007.11
2019-04-06T05:03:57.372Z,1007.11
2019-04-06T05:05:01.757Z,1007.09
2019-04-06T05:06:05.933Z,1007.09
2019-04-06T05:07:10.281Z,1007.08
2019-04-06T05:08:14.680Z,1007.08
2019-04-06T05:09:18.789Z,1007.05
2019-04-06T05:10:23.215Z,1007.06
2019-04-06T05:11:27.234Z,1007.05
2019-04-06T05:12:31.639Z,1007.02
2019-04-06T05:13:35.827Z,1007.03
2019-04-06T05:14:40.181Z,1007.06
2019-04-06T05:15:44.374Z,1007.09
2019-04-06T05:16:48.712Z,1007.13
2019-04-06T05:17:52.888Z,1007.11
2019-04-06T05:18:57.268Z,1007.14
2019-04-06T05:20:01.620Z,1007.16
2019-04-06T05:21:05.760Z,1007.16
2019-04-06T05:22:09.903Z,1007.17
2019-04-06T05:23:14.475Z,1007.14
2019-04-06T05:24:18.686Z,1007.15
2019-04-06T05:25:22.966Z,1007.15
2019-04-06T05:26:37.158Z,1007.17
2019-04-06T05:27:31.557Z,1007.20
2019-04-06T05:28:35.845Z,1007.18
2019-04-06T05:29:40.102Z,1007.17
2019-04-06T05:30:44.344Z,1007.15
2019-04-06T05:31:48.669Z,1007.15
2019-04-06T05:32:53.000Z,1007.16
2019-04-06T05:33:57.192Z,1007.18
2019-04-06T05:35:01.482Z,1007.18
2019-04-06T05:36:05.820Z,1007.21
2019-04-06T05:37:10.095Z,1007.23
2019-04-06T05:38:14.386Z,1007.23
2019-04-06T05:39:18.679Z,1007.25
2019-04-06T05:40:23.183Z,1007.28
2019-04-06T05:41:27.281Z,1007.31
2019-04-06T05:42:31.581Z,1007.31
2019-04-06T05:43:35.939Z,1007.32
2019-04-06T05:44:40.110Z,1007.33
2019-04-06T05:45:44.358Z,1007.32
2019-04-06T05:46:48.780Z,1007.33
2019-04-06T05:47:53.029Z,1007.32
2019-04-06T05:48:57.559Z,1007.32
2019-04-06T05:50:01.734Z,1007.37
2019-04-06T05:51:05.894Z,1007.38
2019-04-06T05:52:10.159Z,1007.40
2019-04-06T05:53:14.450Z,1007.40
2019-04-06T05:54:18.924Z,1007.39
2019-04-06T05:55:24.461Z,1007.40
2019-04-06T05:56:27.442Z,1007.40
2019-04-06T05:57:32.728Z,1007.38
2019-04-06T05:58:36.081Z,1007.38
2019-04-06T05:59:41.013Z,1007.37
2019-04-06T06:00:44.631Z,1007.38
2019-04-06T06:01:49.366Z,1007.39
2019-04-06T06:02:53.184Z,1007.41
2019-04-06T06:03:57.456Z,1007.45
2019-04-06T06:05:01.674Z,1007.47
2019-04-06T06:06:06.053Z,1007.46
2019-04-06T06:07:10.370Z,1007.47
2019-04-06T06:08:14.671Z,1007.46
2019-04-06T06:09:18.947Z,1007.46
2019-04-06T06:10:23.276Z,1007.45
2019-04-06T06:11:27.646Z,1007.43
2019-04-06T06:12:31.869Z,1007.42
2019-04-06T06:13:36.188Z,1007.47
2019-04-06T06:14:40.408Z,1007.49
2019-04-06T06:15:44.607Z,1007.54
2019-04-06T06:16:48.933Z,1007.54
2019-04-06T06:17:53.193Z,1007.53
2019-04-06T06:18:57.775Z,1007.48
2019-04-06T06:20:02.081Z,1007.49
2019-04-06T06:21:06.254Z,1007.46
2019-04-06T06:22:10.591Z,1007.42
2019-04-06T06:23:14.819Z,1007.38
2019-04-06T06:24:19.276Z,1007.41
2019-04-06T06:25:23.603Z,1007.41
2019-04-06T06:26:27.927Z,1007.42
2019-04-06T06:27:32.152Z,1007.40
2019-04-06T06:28:36.604Z,1007.37
2019-04-06T06:29:40.886Z,1007.38
2019-04-06T06:30:45.236Z,1007.40
2019-04-06T06:31:49.564Z,1007.39
2019-04-06T06:32:53.639Z,1007.41
2019-04-06T06:33:57.993Z,1007.41
2019-04-06T06:35:02.436Z,1007.40
2019-04-06T06:36:06.591Z,1007.43
2019-04-06T06:37:10.959Z,1007.45
2019-04-06T06:38:15.213Z,1007.43
2019-04-06T06:39:19.590Z,1007.43
2019-04-06T06:40:23.964Z,1007.44
2019-04-06T06:41:28.322Z,1007.43
2019-04-06T06:42:32.624Z,1007.43
2019-04-06T06:43:40.081Z,1007.45
2019-04-06T06:44:43.179Z,1007.45
2019-04-06T06:45:47.616Z,1007.48
2019-04-06T06:46:52.150Z,1007.50
2019-04-06T06:47:56.182Z,1007.52
2019-04-06T06:49:00.566Z,1007.50
2019-04-06T06:50:04.939Z,1007.52
2019-04-06T06:51:09.198Z,1007.53
2019-04-06T06:52:13.752Z,1007.53
2019-04-06T06:53:18.005Z,1007.51
2019-04-06T06:54:22.053Z,1007.51
2019-04-06T06:55:26.919Z,1007.48
2019-04-06T06:56:30.665Z,1007.48
2019-04-06T06:57:35.000Z,1007.46
2019-04-06T06:58:39.203Z,1007.47
2019-04-06T06:59:43.562Z,1007.47
2019-04-06T07:00:47.830Z,1007.49
2019-04-06T07:01:52.137Z,1007.48
2019-04-06T07:02:56.588Z,1007.46
2019-04-06T07:04:00.823Z,1007.47
2019-04-06T07:05:05.394Z,1007.50
2019-04-06T07:06:09.399Z,1007.49
2019-04-06T07:07:13.746Z,1007.50
2019-04-06T07:08:18.276Z,1007.52
2019-04-06T07:09:22.419Z,1007.52
2019-04-06T07:10:26.749Z,1007.55
2019-04-06T07:11:31.065Z,1007.56
2019-04-06T07:12:35.488Z,1007.58
2019-04-06T07:13:39.699Z,1007.57
2019-04-06T07:14:44.168Z,1007.58
2019-04-06T07:15:48.460Z,1007.62
2019-04-06T07:16:52.654Z,1007.62
2019-04-06T07:17:56.997Z,1007.64
2019-04-06T07:19:01.364Z,1007.60
2019-04-06T07:20:05.605Z,1007.62
2019-04-06T07:21:09.903Z,1007.64
2019-04-06T07:22:14.129Z,1007.63
2019-04-06T07:23:18.615Z,1007.61
2019-04-06T07:24:22.775Z,1007.64
2019-04-06T07:25:27.018Z,1007.66
2019-04-06T07:26:31.319Z,1007.64
2019-04-06T07:27:35.669Z,1007.65
2019-04-06T07:28:40.010Z,1007.67
2019-04-06T07:29:44.201Z,1007.67
2019-04-06T07:30:48.599Z,1007.69
2019-04-06T07:31:52.898Z,1007.66
2019-04-06T07:32:57.253Z,1007.67
2019-04-06T07:34:01.580Z,1007.67
2019-04-06T07:35:06.002Z,1007.65
2019-04-06T07:36:10.231Z,1007.63
2019-04-06T07:37:14.513Z,1007.65
2019-04-06T07:38:18.881Z,1007.64
2019-04-06T07:39:23.349Z,1007.63
2019-04-06T07:40:27.570Z,1007.56
2019-04-06T07:41:31.915Z,1007.60
2019-04-06T07:42:36.268Z,1007.61
2019-04-06T07:43:40.609Z,1007.63
2019-04-06T07:44:44.839Z,1007.65
2019-04-06T07:45:49.217Z,1007.66
2019-04-06T07:46:53.728Z,1007.69
2019-04-06T07:47:57.856Z,1007.70
2019-04-06T07:49:08.322Z,1007.70
2019-04-06T07:50:06.649Z,1007.70
2019-04-06T07:51:10.980Z,1007.69
2019-04-06T07:52:15.336Z,1007.71
2019-04-06T07:53:19.968Z,1007.71
2019-04-06T07:54:24.131Z,1007.70
2019-04-06T07:55:28.505Z,1007.66
2019-04-06T07:56:32.801Z,1007.69
2019-04-06T07:57:37.169Z,1007.68
2019-04-06T07:58:48.369Z,1007.66
2019-04-06T07:59:45.902Z,1007.71
2019-04-06T08:00:50.366Z,1007.67
2019-04-06T08:01:54.519Z,1007.66
2019-04-06T08:02:59.001Z,1007.64
2019-04-06T08:04:03.315Z,1007.61
2019-04-06T08:05:07.667Z,1007.57
2019-04-06T08:06:12.056Z,1007.55
2019-04-06T08:07:16.373Z,1007.54
2019-04-06T08:08:20.695Z,1007.52
2019-04-06T08:09:25.047Z,1007.53
2019-04-06T08:10:29.399Z,1007.51
2019-04-06T08:11:33.755Z,1007.46
2019-04-06T08:12:38.082Z,1007.44
2019-04-06T08:13:42.573Z,1007.43
2019-04-06T08:14:46.882Z,1007.43
2019-04-06T08:15:51.263Z,1007.45
2019-04-06T08:16:55.576Z,1007.46
2019-04-06T08:17:59.914Z,1007.44
2019-04-06T08:19:04.311Z,1007.39
2019-04-06T08:20:08.674Z,1007.38
2019-04-06T08:21:12.942Z,1007.37
2019-04-06T08:22:17.323Z,1007.40
2019-04-06T08:23:21.691Z,1007.41
2019-04-06T08:24:26.031Z,1007.40
2019-04-06T08:25:30.400Z,1007.41
2019-04-06T08:26:34.623Z,1007.42
2019-04-06T08:27:39.029Z,1007.41
2019-04-06T08:28:43.389Z,1007.41
2019-04-06T08:29:47.867Z,1007.38
2019-04-06T08:30:52.134Z,1007.38
2019-04-06T08:31:56.692Z,1007.39
2019-04-06T08:33:00.864Z,1007.38
2019-04-06T08:34:05.173Z,1007.38
2019-04-06T08:35:09.545Z,1007.39
2019-04-06T08:36:13.892Z,1007.39
2019-04-06T08:37:18.209Z,1007.39
2019-04-06T08:38:22.567Z,1007.40
2019-04-06T08:39:26.949Z,1007.36
2019-04-06T08:40:31.338Z,1007.34
2019-04-06T08:41:35.679Z,1007.33
2019-04-06T08:42:40.006Z,1007.32
2019-04-06T08:43:44.322Z,1007.30
2019-04-06T08:44:48.653Z,1007.33
2019-04-06T08:45:52.983Z,1007.31
2019-04-06T08:46:57.403Z,1007.31
2019-04-06T08:48:01.724Z,1007.33
2019-04-06T08:49:06.076Z,1007.33
2019-04-06T08:50:10.557Z,1007.28
2019-04-06T08:51:14.848Z,1007.25
2019-04-06T08:52:19.173Z,1007.24
2019-04-06T08:53:23.542Z,1007.21
2019-04-06T08:54:27.904Z,1007.21
2019-04-06T08:55:32.371Z,1007.17
2019-04-06T08:56:36.600Z,1007.19
2019-04-06T08:57:40.965Z,1007.18
2019-04-06T08:58:45.409Z,1007.17
2019-04-06T08:59:49.768Z,1007.14
2019-04-06T09:00:54.082Z,1007.15
2019-04-06T09:01:58.446Z,1007.12
2019-04-06T09:03:02.812Z,1007.10
2019-04-06T09:04:07.143Z,1007.09
2019-04-06T09:05:10.723Z,1007.09
2019-04-06T09:06:15.245Z,1007.10
2019-04-06T09:07:19.452Z,1007.11
2019-04-06T09:08:23.761Z,1007.16
2019-04-06T09:09:28.178Z,1007.20
2019-04-06T09:10:32.571Z,1007.16
2019-04-06T09:11:36.912Z,1007.19
2019-04-06T09:12:41.398Z,1007.21
2019-04-06T09:13:45.728Z,1007.22
2019-04-06T09:14:50.125Z,1007.23
2019-04-06T09:15:54.515Z,1007.23
2019-04-06T09:16:58.881Z,1007.21
2019-04-06T09:18:03.261Z,1007.23
2019-04-06T09:19:07.639Z,1007.24
2019-04-06T09:20:12.114Z,1007.24
2019-04-06T09:21:16.431Z,1007.21
2019-04-06T09:22:20.968Z,1007.20
2019-04-06T09:23:25.471Z,1007.20
2019-04-06T09:24:29.710Z,1007.22
2019-04-06T09:25:34.206Z,1007.18
2019-04-06T09:26:38.527Z,1007.19
2019-04-06T09:27:43.153Z,1007.21
2019-04-06T09:28:47.404Z,1007.20
2019-04-06T09:29:52.017Z,1007.22
2019-04-06T09:30:56.194Z,1007.19
2019-04-06T09:32:00.590Z,1007.20
2019-04-06T09:33:04.959Z,1007.20
2019-04-06T09:34:09.448Z,1007.19
2019-04-06T09:35:13.791Z,1007.19
2019-04-06T09:36:18.423Z,1007.22
2019-04-06T09:37:22.597Z,1007.25
2019-04-06T09:38:27.062Z,1007.24
2019-04-06T09:39:31.475Z,1007.25
2019-04-06T09:40:35.823Z,1007.27
2019-04-06T09:41:40.331Z,1007.26
2019-04-06T09:42:44.478Z,1007.25
2019-04-06T09:43:49.120Z,1007.22
2019-04-06T09:44:53.230Z,1007.20
2019-04-06T09:45:57.633Z,1007.22
2019-04-06T09:47:01.987Z,1007.23
2019-04-06T09:48:06.493Z,1007.21
2019-04-06T09:49:10.825Z,1007.19
2019-04-06T09:50:15.188Z,1007.19
2019-04-06T09:51:19.594Z,1007.15
2019-04-06T09:52:23.978Z,1007.15
2019-04-06T09:53:28.835Z,1007.17
2019-04-06T09:54:32.792Z,1007.19
2019-04-06T09:55:37.308Z,1007.14
2019-04-06T09:56:41.624Z,1007.13
2019-04-06T09:57:45.977Z,1007.13
2019-04-06T09:58:50.346Z,1007.12
2019-04-06T09:59:55.250Z,1007.08
2019-04-06T10:00:59.328Z,1007.07
2019-04-06T10:02:03.692Z,1007.07
2019-04-06T10:03:07.897Z,1007.02
2019-04-06T10:04:12.260Z,1007.05
2019-04-06T10:05:16.627Z,1007.03
2019-04-06T10:06:21.123Z,1007.02
2019-04-06T10:07:25.423Z,1007.03
2019-04-06T10:08:29.787Z,1007.02
2019-04-06T10:09:34.196Z,1007.01
2019-04-06T10:10:38.610Z,1006.99
2019-04-06T10:11:43.027Z,1006.99
2019-04-06T10:12:47.638Z,1007.00
2019-04-06T10:13:51.968Z,1006.98
2019-04-06T10:14:56.174Z,1007.02
2019-04-06T10:16:00.561Z,1007.02
2019-04-06T10:17:04.973Z,1007.03
2019-04-06T10:18:09.334Z,1007.05
2019-04-06T10:19:13.700Z,1007.07
2019-04-06T10:20:18.098Z,1007.04
2019-04-06T10:21:22.483Z,1007.03
2019-04-06T10:22:26.862Z,1007.02
2019-04-06T10:23:31.425Z,1007.06
2019-04-06T10:24:35.672Z,1007.05
2019-04-06T10:25:40.067Z,1007.05
2019-04-06T10:26:44.706Z,1007.02
2019-04-06T10:27:49.057Z,1007.03
2019-04-06T10:28:53.337Z,1007.03
2019-04-06T10:29:57.711Z,1007.03
2019-04-06T10:31:02.280Z,1007.01
2019-04-06T10:32:06.559Z,1007.03
2019-04-06T10:33:11.089Z,1007.02
2019-04-06T10:34:15.416Z,1007.00
2019-04-06T10:35:19.782Z,1007.01
2019-04-06T10:36:24.180Z,1006.98
2019-04-06T10:37:28.588Z,1006.98
2019-04-06T10:38:32.990Z,1006.96
2019-04-06T10:39:37.496Z,1006.97
2019-04-06T10:40:41.807Z,1006.98
2019-04-06T10:41:46.183Z,1006.99
2019-04-06T10:42:50.588Z,1006.96
2019-04-06T10:43:54.961Z,1006.97
2019-04-06T10:44:59.348Z,1006.95
2019-04-06T10:46:03.727Z,1006.97
2019-04-06T10:47:08.111Z,1006.95
2019-04-06T10:48:12.522Z,1006.97
2019-04-06T10:49:16.899Z,1006.97
2019-04-06T10:50:21.403Z,1006.95
2019-04-06T10:51:25.692Z,1006.97
2019-04-06T10:52:30.109Z,1006.97
2019-04-06T10:53:34.529Z,1006.99
2019-04-06T10:54:38.937Z,1006.96
2019-04-06T10:55:43.726Z,1006.93
2019-04-06T10:56:47.815Z,1006.93
2019-04-06T10:57:52.147Z,1006.90
2019-04-06T10:58:56.527Z,1006.93
2019-04-06T11:00:03.198Z,1006.97
2019-04-06T11:01:05.691Z,1006.95
2019-04-06T11:02:12.764Z,1006.90
2019-04-06T11:03:16.354Z,1006.94
2019-04-06T11:04:20.672Z,1006.91
2019-04-06T11:05:25.065Z,1006.95
2019-04-06T11:06:29.544Z,1006.95
2019-04-06T11:07:33.835Z,1006.98
2019-04-06T11:08:38.509Z,1006.94
2019-04-06T11:09:42.729Z,1006.95
2019-04-06T11:10:47.321Z,1006.96
2019-04-06T11:11:51.484Z,1006.98
2019-04-06T11:12:56.019Z,1006.95
2019-04-06T11:14:00.687Z,1006.89
2019-04-06T11:15:04.729Z,1006.90
2019-04-06T11:16:09.492Z,1006.88
2019-04-06T11:17:13.835Z,1006.87
2019-04-06T11:18:18.258Z,1006.88
2019-04-06T11:19:22.366Z,1006.86
2019-04-06T11:20:26.765Z,1006.84
2019-04-06T11:21:31.262Z,1006.90
2019-04-06T11:22:35.631Z,1006.87
2019-04-06T11:23:40.024Z,1006.85
2019-04-06T11:24:44.441Z,1006.87
2019-04-06T11:25:49.104Z,1006.81
2019-04-06T11:26:53.275Z,1006.79
2019-04-06T11:27:57.882Z,1006.76
2019-04-06T11:29:02.152Z,1006.76
2019-04-06T11:30:13.711Z,1006.75
2019-04-06T11:31:10.985Z,1006.74
2019-04-06T11:32:15.644Z,1006.77
2019-04-06T11:33:19.803Z,1006.74
2019-04-06T11:34:24.781Z,1006.79
2019-04-06T11:35:28.630Z,1006.75
2019-04-06T11:36:33.039Z,1006.72
2019-04-06T11:37:37.463Z,1006.73
2019-04-06T11:38:41.875Z,1006.71
2019-04-06T11:39:46.322Z,1006.73
2019-04-06T11:40:50.713Z,1006.68
2019-04-06T11:41:55.503Z,1006.66
2019-04-06T11:42:59.699Z,1006.68
2019-04-06T11:44:03.997Z,1006.63
2019-04-06T11:45:08.667Z,1006.67
2019-04-06T11:46:13.120Z,1006.66
2019-04-06T11:47:17.264Z,1006.66
2019-04-06T11:48:21.758Z,1006.67
2019-04-06T11:49:26.113Z,1006.65
2019-04-06T11:50:30.623Z,1006.62
2019-04-06T11:51:35.241Z,1006.64
2019-04-06T11:52:39.415Z,1006.67
2019-04-06T11:53:43.731Z,1006.62
2019-04-06T11:54:48.239Z,1006.61
2019-04-06T11:55:52.670Z,1006.63
2019-04-06T11:56:57.065Z,1006.58
2019-04-06T11:58:01.491Z,1006.57
2019-04-06T11:59:05.880Z,1006.55
2019-04-06T12:00:10.605Z,1006.54
2019-04-06T12:01:14.788Z,1006.55
2019-04-06T12:02:19.616Z,1006.50
2019-04-06T12:03:23.694Z,1006.61
2019-04-06T12:04:28.192Z,1006.57
2019-04-06T12:05:32.548Z,1006.55
2019-04-06T12:06:37.194Z,1006.54
2019-04-06T12:07:41.387Z,1006.51
2019-04-06T12:08:45.820Z,1006.50
2019-04-06T12:09:50.548Z,1006.56
2019-04-06T12:10:54.781Z,1006.52
2019-04-06T12:11:59.542Z,1006.54
2019-04-06T12:13:03.588Z,1006.54
2019-04-06T12:14:08.118Z,1006.50
2019-04-06T12:15:12.514Z,1006.51
2019-04-06T12:16:16.958Z,1006.50
2019-04-06T12:17:21.351Z,1006.50
2019-04-06T12:18:25.786Z,1006.47
2019-04-06T12:19:30.188Z,1006.42
2019-04-06T12:20:34.644Z,1006.44
2019-04-06T12:21:38.987Z,1006.43
2019-04-06T12:22:43.681Z,1006.43
2019-04-06T12:23:48.049Z,1006.41
2019-04-06T12:24:52.287Z,1006.37
2019-04-06T12:25:56.943Z,1006.36
2019-04-06T12:27:01.330Z,1006.38
2019-04-06T12:28:05.714Z,1006.40
2019-04-06T12:29:10.153Z,1006.42
2019-04-06T12:30:14.601Z,1006.41
2019-04-06T12:31:22.344Z,1006.39
2019-04-06T12:32:25.667Z,1006.37
2019-04-06T12:33:30.098Z,1006.37
2019-04-06T12:34:34.571Z,1006.33
2019-04-06T12:35:39.010Z,1006.34
2019-04-06T12:36:43.840Z,1006.31
2019-04-06T12:37:47.864Z,1006.35
2019-04-06T12:38:52.272Z,1006.37
2019-04-06T12:39:56.957Z,1006.37
2019-04-06T12:41:01.172Z,1006.36
2019-04-06T12:42:05.584Z,1006.31
2019-04-06T12:43:10.055Z,1006.27
2019-04-06T12:44:17.713Z,1006.25
2019-04-06T12:45:20.989Z,1006.21
2019-04-06T12:46:25.403Z,1006.26
2019-04-06T12:47:29.983Z,1006.23
2019-04-06T12:48:34.602Z,1006.25
2019-04-06T12:49:38.882Z,1006.18
2019-04-06T12:50:43.384Z,1006.19
2019-04-06T12:51:47.762Z,1006.18
2019-04-06T12:52:52.592Z,1006.22
2019-04-06T12:53:56.776Z,1006.21
2019-04-06T12:55:01.552Z,1006.20
2019-04-06T12:56:05.743Z,1006.21
2019-04-06T12:57:10.171Z,1006.19
2019-04-06T12:58:14.707Z,1006.18